createdAt,value
2018-02-23T00:00:34.345Z,8.07
2018-02-23T00:03:01.556Z,6.63
2018-02-23T00:05:29.024Z,8.07
2018-02-23T00:07:56.142Z,7.83
2018-02-23T00:12:56.458Z,7.73
2018-02-23T00:15:23.588Z,8.27
2018-02-23T00:17:50.351Z,8.00
2018-02-23T00:20:18.058Z,8.00
2018-02-23T00:22:45.625Z,7.23
2018-02-23T00:25:14.244Z,7.93
2018-02-23T00:27:41.184Z,7.20
2018-02-23T00:30:09.419Z,8.90
2018-02-23T00:32:36.588Z,7.13
2018-02-23T00:35:04.935Z,7.93
2018-02-23T00:37:33.083Z,8.17
2018-02-23T00:39:59.941Z,7.30
2018-02-23T00:42:27.863Z,7.90
2018-02-23T00:44:55.953Z,7.30
2018-02-23T00:47:23.428Z,6.83
2018-02-23T00:49:50.649Z,7.70
2018-02-23T00:52:17.756Z,7.70
2018-02-23T00:54:44.358Z,7.10
2018-02-23T00:57:11.160Z,7.90
2018-02-23T00:59:37.877Z,7.90
2018-02-23T01:02:04.624Z,7.67
2018-02-23T01:04:31.427Z,6.87
2018-02-23T01:06:58.593Z,8.50
2018-02-23T01:09:25.771Z,7.43
2018-02-23T01:11:53.367Z,7.53
2018-02-23T01:14:20.257Z,8.57
2018-02-23T01:16:46.967Z,7.90
2018-02-23T01:19:14.343Z,7.10
2018-02-23T01:21:40.797Z,6.63
2018-02-23T01:24:08.583Z,6.83
2018-02-23T01:26:34.965Z,8.20
2018-02-23T01:29:02.637Z,7.47
2018-02-23T01:31:29.607Z,7.30
2018-02-23T01:33:56.748Z,7.03
2018-02-23T01:36:26.912Z,7.40
2018-02-23T01:38:54.538Z,8.27
2018-02-23T01:41:21.421Z,7.73
2018-02-23T01:43:49.088Z,7.03
2018-02-23T01:46:15.946Z,6.47
2018-02-23T01:48:43.597Z,6.10
2018-02-23T01:51:11.145Z,6.47
2018-02-23T01:53:38.544Z,7.40
2018-02-23T01:56:05.708Z,6.70
2018-02-23T01:58:32.972Z,6.77
2018-02-23T02:00:59.768Z,6.97
2018-02-23T02:03:27.090Z,7.00
2018-02-23T02:05:54.622Z,6.20
2018-02-23T02:08:22.772Z,6.70
2018-02-23T02:10:49.503Z,6.03
2018-02-23T02:13:15.873Z,6.30
2018-02-23T02:15:42.585Z,6.30
2018-02-23T02:18:10.407Z,5.03
2018-02-23T02:20:52.460Z,6.30
2018-02-23T02:23:19.584Z,6.30
2018-02-23T02:25:46.329Z,7.03
2018-02-23T02:28:13.814Z,7.13
2018-02-23T02:30:40.347Z,6.60
2018-02-23T02:33:08.241Z,6.03
2018-02-23T02:35:36.829Z,7.40
2018-02-23T02:38:05.025Z,6.60
2018-02-23T02:40:33.080Z,6.27
2018-02-23T02:43:00.717Z,6.57
2018-02-23T02:45:27.197Z,6.17
2018-02-23T02:47:54.725Z,6.57
2018-02-23T02:50:22.960Z,7.17
2018-02-23T02:52:50.021Z,7.00
2018-02-23T02:55:17.127Z,7.43
2018-02-23T02:57:44.246Z,6.70
2018-02-23T03:00:11.419Z,6.10
2018-02-23T03:02:38.365Z,7.10
2018-02-23T03:05:05.502Z,7.03
2018-02-23T03:07:32.694Z,6.13
2018-02-23T03:10:00.160Z,6.00
2018-02-23T03:12:26.562Z,6.47
2018-02-23T03:14:53.432Z,7.30
2018-02-23T03:17:20.192Z,6.07
2018-02-23T03:19:47.380Z,6.03
2018-02-23T03:22:15.015Z,5.90
2018-02-23T03:24:41.794Z,7.57
2018-02-23T03:27:08.524Z,6.73
2018-02-23T03:29:35.690Z,6.77
2018-02-23T03:32:02.496Z,6.40
2018-02-23T03:34:30.565Z,7.47
2018-02-23T03:36:57.099Z,6.30
2018-02-23T03:39:23.936Z,7.13
2018-02-23T03:41:51.087Z,7.73
2018-02-23T03:44:18.326Z,7.60
2018-02-23T03:46:45.114Z,6.63
2018-02-23T03:49:12.746Z,6.20
2018-02-23T03:51:40.011Z,6.90
2018-02-23T03:54:06.343Z,7.57
2018-02-23T03:56:33.115Z,7.07
2018-02-23T03:58:59.937Z,8.30
2018-02-23T04:01:26.707Z,7.13
2018-02-23T04:03:54.197Z,7.33
2018-02-23T04:06:20.648Z,6.30
2018-02-23T04:08:47.386Z,7.97
2018-02-23T04:11:14.957Z,6.73
2018-02-23T04:13:41.706Z,6.20
2018-02-23T04:16:08.544Z,6.17
2018-02-23T04:18:35.654Z,7.33
2018-02-23T04:21:02.844Z,6.67
2018-02-23T04:23:29.678Z,6.67
2018-02-23T04:25:56.810Z,7.10
2018-02-23T04:28:24.015Z,6.83
2018-02-23T04:30:51.845Z,6.83
2018-02-23T04:33:18.662Z,6.10
2018-02-23T04:35:46.758Z,7.00
2018-02-23T04:38:13.172Z,6.77
2018-02-23T04:40:40.313Z,7.27
2018-02-23T04:43:07.562Z,6.10
2018-02-23T04:48:31.622Z,7.40
2018-02-23T04:50:58.456Z,7.23
2018-02-23T04:53:25.186Z,6.30
2018-02-23T04:55:51.915Z,6.30
2018-02-23T04:58:25.029Z,6.30
2018-02-23T05:00:52.216Z,7.70
2018-02-23T05:03:18.644Z,8.40
2018-02-23T05:05:45.487Z,7.70
2018-02-23T05:08:12.329Z,7.70
2018-02-23T05:10:39.430Z,8.37
2018-02-23T05:13:06.170Z,7.17
2018-02-23T05:15:32.920Z,8.67
2018-02-23T05:18:00.768Z,8.23
2018-02-23T05:20:27.496Z,7.97
2018-02-23T05:22:53.897Z,8.57
2018-02-23T05:25:21.388Z,8.43
2018-02-23T05:27:48.500Z,9.17
2018-02-23T05:30:15.672Z,9.43
2018-02-23T05:32:42.867Z,10.03
2018-02-23T05:35:16.604Z,8.43
2018-02-23T05:37:43.712Z,9.17
2018-02-23T05:40:10.481Z,9.77
2018-02-23T05:42:38.700Z,9.00
2018-02-23T05:45:05.512Z,11.03
2018-02-23T05:47:32.706Z,9.63
2018-02-23T05:49:59.853Z,9.53
2018-02-23T05:52:26.579Z,10.10
2018-02-23T05:54:54.107Z,8.97
2018-02-23T05:57:21.246Z,10.90
2018-02-23T05:59:47.584Z,8.73
2018-02-23T06:02:15.398Z,9.47
2018-02-23T06:04:42.381Z,8.60
2018-02-23T06:07:09.445Z,10.53
2018-02-23T06:09:36.926Z,10.30
2018-02-23T06:12:03.393Z,8.70
2018-02-23T06:14:30.117Z,9.80
2018-02-23T06:16:56.807Z,8.90
2018-02-23T06:19:29.795Z,10.20
2018-02-23T06:21:56.471Z,9.70
2018-02-23T06:24:23.214Z,10.10
2018-02-23T06:26:51.083Z,10.17
2018-02-23T06:29:17.792Z,11.50
2018-02-23T06:31:45.050Z,10.87
2018-02-23T06:34:12.289Z,10.33
2018-02-23T06:36:39.405Z,11.20
2018-02-23T06:39:07.239Z,11.43
2018-02-23T06:41:34.503Z,11.30
2018-02-23T06:44:01.600Z,11.37
2018-02-23T06:46:28.507Z,11.90
2018-02-23T06:48:56.067Z,12.50
2018-02-23T06:51:23.267Z,12.23
2018-02-23T06:53:50.112Z,14.43
2018-02-23T06:56:18.346Z,14.70
2018-02-23T06:58:45.139Z,11.97
2018-02-23T07:01:13.226Z,12.47
2018-02-23T07:03:40.127Z,13.70
2018-02-23T07:06:07.601Z,12.90
2018-02-23T07:08:35.480Z,11.47
2018-02-23T07:11:03.103Z,13.50
2018-02-23T07:13:29.997Z,12.80
2018-02-23T07:15:58.086Z,11.83
2018-02-23T07:18:26.234Z,10.00
2018-02-23T07:20:52.663Z,12.03
2018-02-23T07:23:19.484Z,12.80
2018-02-23T07:25:46.633Z,14.23
2018-02-23T07:28:13.793Z,12.87
2018-02-23T07:30:40.557Z,13.10
2018-02-23T07:33:08.753Z,14.00
2018-02-23T07:35:36.764Z,13.40
2018-02-23T07:38:04.508Z,14.03
2018-02-23T07:40:31.383Z,13.80
2018-02-23T07:42:57.753Z,12.80
2018-02-23T07:45:25.895Z,15.50
2018-02-23T07:47:52.630Z,14.60
2018-02-23T07:50:19.751Z,15.00
2018-02-23T07:52:46.107Z,14.50
2018-02-23T07:55:13.306Z,12.80
2018-02-23T07:57:40.367Z,13.13
2018-02-23T08:00:07.862Z,14.03
2018-02-23T08:02:34.272Z,12.13
2018-02-23T08:05:01.459Z,12.80
2018-02-23T08:07:28.565Z,14.60
2018-02-23T08:09:55.299Z,11.30
2018-02-23T08:12:21.965Z,12.67
2018-02-23T08:14:48.852Z,12.90
2018-02-23T08:17:17.338Z,12.67
2018-02-23T08:19:44.124Z,14.23
2018-02-23T08:22:12.213Z,12.70
2018-02-23T08:24:38.978Z,8.97
2018-02-23T08:27:06.462Z,11.10
2018-02-23T08:29:32.832Z,12.67
2018-02-23T08:31:59.593Z,13.87
2018-02-23T08:34:26.306Z,13.13
2018-02-23T08:36:53.056Z,10.80
2018-02-23T08:39:20.516Z,12.40
2018-02-23T08:41:46.980Z,13.83
2018-02-23T08:44:14.132Z,13.50
2018-02-23T08:46:41.844Z,12.63
2018-02-23T08:49:09.972Z,13.57
2018-02-23T08:51:37.116Z,11.40
2018-02-23T08:54:04.214Z,11.60
2018-02-23T08:56:31.458Z,10.83
2018-02-23T08:58:58.629Z,12.37
2018-02-23T09:01:25.669Z,11.83
2018-02-23T09:03:53.163Z,11.20
2018-02-23T09:06:20.589Z,9.57
2018-02-23T09:08:48.012Z,10.63
2018-02-23T09:11:15.484Z,10.67
2018-02-23T09:13:42.265Z,9.27
2018-02-23T09:16:09.371Z,10.80
2018-02-23T09:18:36.295Z,11.37
2018-02-23T09:21:03.734Z,13.10
2018-02-23T09:23:30.638Z,11.73
2018-02-23T09:25:58.913Z,11.30
2018-02-23T09:28:25.955Z,10.93
2018-02-23T09:30:52.880Z,10.97
2018-02-23T09:33:20.328Z,11.20
2018-02-23T09:35:47.491Z,10.57
2018-02-23T09:38:13.911Z,10.00
2018-02-23T09:40:40.315Z,9.97
2018-02-23T09:43:07.068Z,11.30
2018-02-23T09:45:35.151Z,10.20
2018-02-23T09:48:03.199Z,9.63
2018-02-23T09:50:30.045Z,10.20
2018-02-23T09:52:56.474Z,10.53
2018-02-23T09:55:23.930Z,8.63
2018-02-23T09:57:50.456Z,9.30
2018-02-23T10:00:17.947Z,9.27
2018-02-23T10:02:44.341Z,11.33
2018-02-23T10:05:11.844Z,11.00
2018-02-23T10:07:38.234Z,11.60
2018-02-23T10:10:04.739Z,9.70
2018-02-23T10:12:31.548Z,11.60
2018-02-23T10:14:58.006Z,11.60
2018-02-23T10:17:24.798Z,10.80
2018-02-23T10:19:51.149Z,10.13
2018-02-23T10:22:18.456Z,10.60
2018-02-23T10:24:45.984Z,11.83
2018-02-23T10:27:13.087Z,11.20
2018-02-23T10:29:40.173Z,12.50
2018-02-23T10:32:07.330Z,12.03
2018-02-23T10:34:34.116Z,10.93
2018-02-23T10:37:00.650Z,12.13
2018-02-23T10:39:28.233Z,12.10
2018-02-23T10:41:54.971Z,11.30
2018-02-23T10:44:21.393Z,11.83
2018-02-23T10:46:49.787Z,12.33
2018-02-23T10:49:16.832Z,9.87
2018-02-23T10:51:43.443Z,11.20
2018-02-23T10:54:10.369Z,11.50
2018-02-23T10:56:37.369Z,11.53
2018-02-23T10:59:03.836Z,10.73
2018-02-23T11:01:31.048Z,12.07
2018-02-23T11:03:58.430Z,11.27
2018-02-23T11:06:24.951Z,10.17
2018-02-23T11:08:52.065Z,10.10
2018-02-23T11:11:20.108Z,10.80
2018-02-23T11:13:46.568Z,10.03
2018-02-23T11:16:13.063Z,9.50
2018-02-23T11:18:40.582Z,10.53
2018-02-23T11:21:07.691Z,10.33
2018-02-23T11:23:34.480Z,10.60
2018-02-23T11:26:00.936Z,9.60
2018-02-23T11:28:29.072Z,10.13
2018-02-23T11:30:55.822Z,10.27
2018-02-23T11:33:22.280Z,9.90
2018-02-23T11:35:50.593Z,9.73
2018-02-23T11:38:17.669Z,8.93
2018-02-23T11:40:45.687Z,9.07
2018-02-23T11:43:13.542Z,9.73
2018-02-23T11:45:39.859Z,9.77
2018-02-23T11:48:06.333Z,9.47
2018-02-23T11:50:32.803Z,8.80
2018-02-23T11:52:59.211Z,9.30
2018-02-23T11:55:27.423Z,9.10
2018-02-23T11:58:00.598Z,9.03
2018-02-23T12:00:28.670Z,8.73
2018-02-23T12:02:58.550Z,7.83
2018-02-23T12:05:26.660Z,8.20
2018-02-23T12:07:55.705Z,9.67
2018-02-23T12:10:22.176Z,10.07
2018-02-23T12:12:48.612Z,8.57
2018-02-23T12:15:15.370Z,8.80
2018-02-23T12:17:42.312Z,9.67
2018-02-23T12:20:10.679Z,9.60
2018-02-23T12:22:37.260Z,7.70
2018-02-23T12:25:05.408Z,8.03
2018-02-23T12:27:31.853Z,7.20
2018-02-23T12:29:59.996Z,7.70
2018-02-23T12:32:26.459Z,8.13
2018-02-23T12:34:53.280Z,6.93
2018-02-23T12:37:20.428Z,7.90
2018-02-23T12:39:47.416Z,6.33
2018-02-23T12:42:15.320Z,7.30
2018-02-23T12:44:42.190Z,6.63
2018-02-23T12:47:10.224Z,8.97
2018-02-23T12:49:37.552Z,7.83
2018-02-23T12:52:05.308Z,6.07
2018-02-23T12:54:32.208Z,6.83
2018-02-23T12:56:59.561Z,7.03
2018-02-23T12:59:27.938Z,5.90
2018-02-23T13:02:06.830Z,6.80
2018-02-23T13:04:33.367Z,7.40
2018-02-23T13:06:59.669Z,6.60
2018-02-23T13:09:26.812Z,5.60
2018-02-23T13:11:53.923Z,5.90
2018-02-23T13:14:20.671Z,6.73
2018-02-23T13:16:47.316Z,6.83
2018-02-23T13:19:13.719Z,6.43
2018-02-23T13:21:40.830Z,7.07
2018-02-23T13:24:07.228Z,5.83
2018-02-23T13:26:35.050Z,7.00
2018-02-23T13:29:02.540Z,5.70
2018-02-23T13:31:29.604Z,6.30
2018-02-23T13:33:55.934Z,6.23
2018-02-23T13:36:22.727Z,7.00
2018-02-23T13:38:50.751Z,6.83
2018-02-23T13:41:28.740Z,7.30
2018-02-23T13:43:56.922Z,6.27
2018-02-23T13:46:23.451Z,6.83
2018-02-23T13:48:49.943Z,6.80
2018-02-23T13:51:16.537Z,6.50
2018-02-23T13:53:45.302Z,6.33
2018-02-23T13:56:14.711Z,7.10
2018-02-23T13:58:41.454Z,6.93
2018-02-23T14:01:07.920Z,7.80
2018-02-23T14:03:34.316Z,6.77
2018-02-23T14:06:03.520Z,7.43
2018-02-23T14:08:30.342Z,6.57
2018-02-23T14:10:57.524Z,6.87
2018-02-23T14:13:24.429Z,7.30
2018-02-23T14:15:51.779Z,6.70
2018-02-23T14:18:18.284Z,6.53
2018-02-23T14:20:45.750Z,5.73
2018-02-23T14:23:12.514Z,6.30
2018-02-23T14:25:39.339Z,6.90
2018-02-23T14:28:06.662Z,7.03
2018-02-23T14:30:34.636Z,6.20
2018-02-23T14:33:02.050Z,5.63
2018-02-23T14:35:28.536Z,5.60
2018-02-23T14:37:55.489Z,5.80
2018-02-23T14:40:22.971Z,5.23
2018-02-23T14:42:49.384Z,5.90
2018-02-23T14:45:16.252Z,6.17
2018-02-23T14:47:43.121Z,5.23
2018-02-23T14:50:21.738Z,4.70
2018-02-23T14:52:49.397Z,5.03
2018-02-23T14:55:17.112Z,5.10
2018-02-23T14:57:43.803Z,4.80
2018-02-23T15:00:10.684Z,6.23
2018-02-23T15:02:38.192Z,6.30
2018-02-23T15:05:06.499Z,6.17
2018-02-23T15:07:33.085Z,5.40
2018-02-23T15:09:59.744Z,5.30
2018-02-23T15:12:27.086Z,6.60
2018-02-23T15:14:54.066Z,5.30
2018-02-23T15:17:20.879Z,5.57
2018-02-23T15:19:48.393Z,5.67
2018-02-23T15:22:15.441Z,3.63
2018-02-23T15:24:42.460Z,5.70
2018-02-23T15:27:10.817Z,5.43
2018-02-23T15:29:37.568Z,4.80
2018-02-23T15:32:16.166Z,4.90
2018-02-23T15:34:49.380Z,5.40
2018-02-23T15:37:17.281Z,5.10
2018-02-23T15:39:45.792Z,4.70
2018-02-23T15:42:14.857Z,5.27
2018-02-23T15:44:45.879Z,5.67
2018-02-23T15:47:14.635Z,5.63
2018-02-23T15:49:56.685Z,5.77
2018-02-23T15:52:23.271Z,5.03
2018-02-23T15:54:51.493Z,5.60
2018-02-23T15:57:19.768Z,6.10
2018-02-23T15:59:46.737Z,6.10
2018-02-23T16:02:15.995Z,5.80
2018-02-23T16:04:43.662Z,5.57
2018-02-23T16:07:10.613Z,5.87
2018-02-23T16:09:38.228Z,5.20
2018-02-23T16:12:05.043Z,5.87
2018-02-23T16:14:33.067Z,6.33
2018-02-23T16:17:01.414Z,4.97
2018-02-23T16:19:29.803Z,5.20
2018-02-23T16:21:57.942Z,5.77
2018-02-23T16:24:26.092Z,6.30
2018-02-23T16:26:53.081Z,5.37
2018-02-23T16:29:19.858Z,5.70
2018-02-23T16:31:47.411Z,5.30
2018-02-23T16:34:14.594Z,5.93
2018-02-23T16:36:42.847Z,5.60
2018-02-23T16:39:10.470Z,5.40
2018-02-23T16:41:37.098Z,4.60
2018-02-23T16:44:03.920Z,5.97
2018-02-23T16:46:32.251Z,5.70
2018-02-23T16:51:32.721Z,5.60
2018-02-23T16:53:59.101Z,6.17
2018-02-23T16:56:26.625Z,6.10
2018-02-23T16:58:53.864Z,6.20
2018-02-23T17:01:24.284Z,6.60
2018-02-23T17:03:51.610Z,6.67
2018-02-23T17:06:20.452Z,6.40
2018-02-23T17:08:54.434Z,7.80
2018-02-23T17:11:21.603Z,8.20
2018-02-23T17:13:50.074Z,7.00
2018-02-23T17:16:16.696Z,7.00
2018-02-23T17:18:46.970Z,7.80
2018-02-23T17:21:13.420Z,7.93
2018-02-23T17:23:40.220Z,8.00
2018-02-23T17:26:11.261Z,7.10
2018-02-23T17:28:38.966Z,7.50
2018-02-23T17:31:09.886Z,7.90
2018-02-23T17:33:38.067Z,8.30
2018-02-23T17:36:05.198Z,8.30
2018-02-23T17:38:32.347Z,8.00
2018-02-23T17:41:00.701Z,7.33
2018-02-23T17:43:27.085Z,7.37
2018-02-23T17:45:55.506Z,7.23
2018-02-23T17:48:22.230Z,8.07
2018-02-23T17:50:48.654Z,6.77
2018-02-23T17:53:15.800Z,6.67
2018-02-23T17:55:42.072Z,7.73
2018-02-23T17:58:08.882Z,9.00
2018-02-23T18:00:36.093Z,8.53
2018-02-23T18:03:02.599Z,7.27
2018-02-23T18:05:29.583Z,9.17
2018-02-23T18:07:56.468Z,9.07
2018-02-23T18:10:22.904Z,9.50
2018-02-23T18:12:49.246Z,8.40
2018-02-23T18:15:15.682Z,8.87
2018-02-23T18:17:42.417Z,9.13
2018-02-23T18:20:10.296Z,10.10
2018-02-23T18:22:37.467Z,8.53
2018-02-23T18:25:05.093Z,8.80
2018-02-23T18:27:31.867Z,9.47
2018-02-23T18:29:58.638Z,10.07
2018-02-23T18:32:25.782Z,8.23
2018-02-23T18:34:52.960Z,8.20
2018-02-23T18:37:21.100Z,8.00
2018-02-23T18:39:48.233Z,7.07
2018-02-23T18:42:15.610Z,8.33
2018-02-23T18:44:42.065Z,9.33
2018-02-23T18:47:09.381Z,8.30
2018-02-23T18:49:36.681Z,8.37
2018-02-23T18:52:03.393Z,9.47
2018-02-23T18:54:30.063Z,9.37
2018-02-23T18:56:59.503Z,8.50
2018-02-23T18:59:26.116Z,8.67
2018-02-23T19:01:53.904Z,7.70
2018-02-23T19:04:21.875Z,9.90
2018-02-23T19:06:48.430Z,8.97
2018-02-23T19:09:15.235Z,8.80
2018-02-23T19:11:42.800Z,10.00
2018-02-23T19:14:10.120Z,9.07
2018-02-23T19:16:37.338Z,10.17
2018-02-23T19:19:04.134Z,9.10
2018-02-23T19:21:31.574Z,9.07
2018-02-23T19:23:59.384Z,8.57
2018-02-23T19:26:26.104Z,9.20
2018-02-23T19:28:52.839Z,8.70
2018-02-23T19:31:20.295Z,9.70
2018-02-23T19:33:47.856Z,9.30
2018-02-23T19:36:14.306Z,10.00
2018-02-23T19:38:40.689Z,9.33
2018-02-23T19:41:07.446Z,10.33
2018-02-23T19:43:34.574Z,10.33
2018-02-23T19:46:02.558Z,9.10
2018-02-23T19:48:30.730Z,10.50
2018-02-23T19:50:59.419Z,9.77
2018-02-23T19:53:26.604Z,10.87
2018-02-23T19:55:53.162Z,11.00
2018-02-23T19:58:19.978Z,11.07
2018-02-23T20:00:47.121Z,8.50
2018-02-23T20:03:13.862Z,8.90
2018-02-23T20:05:40.355Z,9.63
2018-02-23T20:08:07.276Z,7.30
2018-02-23T20:10:33.828Z,9.33
2018-02-23T20:13:00.580Z,8.10
2018-02-23T20:15:26.979Z,9.30
2018-02-23T20:17:53.902Z,10.83
2018-02-23T20:20:20.402Z,8.73
2018-02-23T20:22:46.936Z,8.10
2018-02-23T20:25:13.414Z,8.20
2018-02-23T20:27:39.989Z,9.37
2018-02-23T20:30:07.091Z,8.10
2018-02-23T20:32:33.854Z,8.97
2018-02-23T20:35:00.347Z,8.90
2018-02-23T20:37:26.973Z,6.80
2018-02-23T20:39:54.168Z,6.43
2018-02-23T20:42:21.489Z,7.80
2018-02-23T20:44:48.754Z,7.40
2018-02-23T20:47:15.402Z,7.87
2018-02-23T20:49:41.883Z,7.20
2018-02-23T20:52:09.504Z,7.50
2018-02-23T20:54:36.427Z,7.67
2018-02-23T20:57:02.866Z,7.47
2018-02-23T20:59:29.350Z,7.87
2018-02-23T21:01:56.931Z,7.50
2018-02-23T21:04:25.327Z,7.17
2018-02-23T21:06:51.717Z,7.47
2018-02-23T21:09:18.240Z,7.43
2018-02-23T21:11:44.819Z,7.07
2018-02-23T21:14:11.701Z,7.00
2018-02-23T21:16:39.776Z,7.53
2018-02-23T21:19:06.179Z,7.43
2018-02-23T21:27:14.628Z,7.37
2018-02-23T21:29:41.101Z,7.53
2018-02-23T21:32:07.593Z,7.57
2018-02-23T21:34:33.984Z,8.93
2018-02-23T21:37:01.608Z,8.83
2018-02-23T21:39:29.684Z,7.90
2018-02-23T21:41:56.426Z,7.20
2018-02-23T21:44:24.966Z,7.03
2018-02-23T21:46:52.595Z,6.13
2018-02-23T21:49:19.323Z,6.83
2018-02-23T21:51:45.798Z,6.33
2018-02-23T21:54:12.333Z,7.93
2018-02-23T21:56:38.881Z,7.23
2018-02-23T21:59:05.708Z,7.93
2018-02-23T22:01:32.531Z,7.80
2018-02-23T22:03:59.744Z,6.20
2018-02-23T22:06:26.422Z,6.70
2018-02-23T22:08:52.850Z,7.57
2018-02-23T22:11:20.194Z,6.90
2018-02-23T22:13:46.647Z,7.03
2018-02-23T22:16:14.534Z,6.97
2018-02-23T22:18:42.043Z,7.37
2018-02-23T22:21:08.664Z,8.20
2018-02-23T22:23:35.073Z,7.90
2018-02-23T22:26:01.905Z,7.77
2018-02-23T22:28:28.783Z,9.27
2018-02-23T22:30:55.363Z,8.70
2018-02-23T22:33:21.788Z,9.03
2018-02-23T22:35:48.237Z,8.23
2018-02-23T22:38:14.810Z,8.50
2018-02-23T22:40:41.233Z,8.40
2018-02-23T22:43:07.609Z,8.53
2018-02-23T22:45:35.213Z,7.30
2018-02-23T22:48:02.130Z,8.00
2018-02-23T22:50:29.816Z,8.77
2018-02-23T22:52:56.226Z,7.97
2018-02-23T22:55:23.337Z,8.37
2018-02-23T22:57:50.831Z,8.30
2018-02-23T23:00:17.266Z,8.90
2018-02-23T23:02:43.708Z,8.60
2018-02-23T23:05:10.301Z,8.67
2018-02-23T23:07:37.673Z,8.37
2018-02-23T23:10:05.129Z,8.77
2018-02-23T23:12:32.282Z,8.20
2018-02-23T23:14:59.528Z,8.40
2018-02-23T23:17:26.276Z,8.53
2018-02-23T23:19:53.514Z,8.53
2018-02-23T23:22:19.885Z,8.37
2018-02-23T23:24:46.337Z,8.37
2018-02-23T23:27:12.744Z,9.20
2018-02-23T23:29:41.059Z,8.83
2018-02-23T23:32:08.303Z,8.60
2018-02-23T23:34:34.705Z,9.03
2018-02-23T23:37:01.601Z,9.07
2018-02-23T23:39:30.402Z,8.63
2018-02-23T23:41:57.101Z,8.03
2018-02-23T23:44:24.206Z,9.17
2018-02-23T23:46:50.840Z,8.17
2018-02-23T23:49:17.436Z,9.23
2018-02-23T23:51:43.962Z,9.60
2018-02-23T23:54:11.119Z,10.10
2018-02-23T23:56:38.317Z,9.90
2018-02-23T23:59:04.707Z,9.63
